Time;durP1;ratioP1;P1;durP2;ratioP2;P2;SDS_P1;SDS_P2;PMS_P1;PMS_P2;Temp;Humidity;BMP_temperature;BMP_pressure;BME280_temperature;BME280_humidity;BME280_pressure;Samples;Min_cycle;Max_cycle;Signal;HPM_P1;HPM_P2
2023/02/26 00:00:11;;;;;;;3.67;1.83;;;;;;;6.19;59.52;98574.19;4482273;31;20134;-84
2023/02/26 00:02:36;;;;;;;2.70;1.60;;;;;;;6.05;59.51;98579.81;4469276;32;20461;-83
2023/02/26 00:05:04;;;;;;;3.22;1.75;;;;;;;6.31;59.53;98567.78;4483610;31;20115;-83
2023/02/26 00:07:33;;;;;;;3.62;1.30;;;;;;;6.36;59.54;98569.28;4482096;32;20100;-83
2023/02/26 00:10:01;;;;;;;4.10;1.47;;;;;;;6.30;59.53;98556.59;4485510;31;20100;-85
2023/02/26 00:12:27;;;;;;;1.92;1.30;;;;;;;6.28;59.54;98568.72;4485787;31;20159;-85
2023/02/26 00:14:53;;;;;;;3.65;1.90;;;;;;;6.17;59.53;98564.81;4484298;31;20092;-83
2023/02/26 00:17:21;;;;;;;2.12;1.45;;;;;;;6.02;59.51;98550.66;4485705;31;20176;-84
2023/02/26 00:19:46;;;;;;;3.42;1.70;;;;;;;6.11;59.52;98581.34;4485736;31;20099;-85
2023/02/26 00:22:12;;;;;;;3.80;2.15;;;;;;;6.07;59.53;98595.25;4484369;32;20110;-84
2023/02/26 00:24:37;;;;;;;4.22;1.55;;;;;;;6.19;59.52;98579.38;4484203;31;20088;-82
2023/02/26 00:27:03;;;;;;;2.85;1.60;;;;;;;6.09;59.52;98573.66;4485194;31;20119;-84
2023/02/26 00:29:28;;;;;;;5.15;2.10;;;;;;;6.01;59.52;98544.66;4458269;32;20550;-84
2023/02/26 00:31:54;;;;;;;2.70;1.90;;;;;;;6.09;59.52;98529.72;4484329;32;20509;-84
2023/02/26 00:34:20;;;;;;;2.20;1.40;;;;;;;5.91;59.52;98532.91;4471507;32;20440;-83
2023/02/26 00:36:51;;;;;;;2.60;1.62;;;;;;;6.08;59.52;98530.63;4485901;31;20366;-83
2023/02/26 00:39:44;;;;;;;2.72;1.70;;;;;;;5.93;59.51;98545.81;4473346;31;20126;-84
2023/02/26 00:42:10;;;;;;;3.22;1.60;;;;;;;5.95;59.51;98552.59;4485884;31;20100;-84
2023/02/26 00:44:35;;;;;;;2.47;1.73;;;;;;;5.67;59.49;98549.16;4485220;32;20138;-84
2023/02/26 00:47:07;;;;;;;1.85;1.40;;;;;;;5.45;59.48;98549.00;4493472;32;20381;-84
2023/02/26 00:49:50;;;;;;;3.62;1.90;;;;;;;5.43;59.48;98546.44;4485544;31;20112;-83
2023/02/26 00:52:23;;;;;;;2.62;1.73;;;;;;;5.55;59.49;98538.34;4483691;31;20105;-83
2023/02/26 00:54:49;;;;;;;3.92;1.62;;;;;;;5.59;59.49;98549.41;4471510;32;20088;-83
2023/02/26 00:57:14;;;;;;;3.78;1.65;;;;;;;5.68;59.51;98543.97;4485102;31;20149;-83
2023/02/26 00:59:40;;;;;;;3.03;1.80;;;;;;;5.61;59.49;98559.69;4457416;32;23430;-83
2023/02/26 01:02:05;;;;;;;3.30;1.73;;;;;;;5.67;59.49;98560.31;4484704;31;20444;-83
2023/02/26 01:04:31;;;;;;;3.45;1.77;;;;;;;5.76;59.49;98559.22;4485343;31;20120;-83
2023/02/26 01:06:56;;;;;;;3.03;1.92;;;;;;;5.71;59.50;98551.63;4484949;31;20085;-83
2023/02/26 01:09:27;;;;;;;3.97;2.03;;;;;;;5.83;59.51;98551.22;4485123;31;20266;-82
2023/02/26 01:11:53;;;;;;;3.80;1.95;;;;;;;5.76;59.51;98557.47;4485204;31;20084;-83
2023/02/26 01:14:19;;;;;;;3.53;2.17;;;;;;;5.75;59.50;98566.13;4483960;32;20096;-84
2023/02/26 01:17:23;;;;;;;3.92;2.10;;;;;;;5.65;59.50;98582.75;4470741;32;20445;-84
2023/02/26 01:19:53;;;;;;;3.10;2.00;;;;;;;5.70;59.50;98595.56;4470644;31;20100;-83
2023/02/26 01:22:28;;;;;;;3.75;1.80;;;;;;;5.44;59.48;98594.59;4483559;32;20488;-84
2023/02/26 01:25:17;;;;;;;4.10;2.10;;;;;;;5.47;59.49;98588.50;4486955;31;20098;-83
2023/02/26 01:27:42;;;;;;;2.72;1.80;;;;;;;5.34;59.48;98585.44;4470383;32;20135;-83
2023/02/26 01:30:08;;;;;;;3.62;1.73;;;;;;;5.45;59.48;98577.38;4474730;31;20492;-84
2023/02/26 01:33:07;;;;;;;3.50;1.60;;;;;;;5.55;59.49;98573.63;4490140;31;20088;-84
2023/02/26 01:35:49;;;;;;;2.35;1.95;;;;;;;5.65;59.50;98572.44;4475490;32;20209;-83
2023/02/26 01:38:18;;;;;;;3.17;1.85;;;;;;;5.57;59.49;98555.50;4483938;32;20167;-84
2023/02/26 01:40:58;;;;;;;3.67;2.00;;;;;;;5.77;59.51;98550.56;4485009;31;20131;-83
2023/02/26 01:43:32;;;;;;;3.28;1.95;;;;;;;5.54;59.49;98551.28;4485165;31;20436;-84
2023/02/26 01:46:22;;;;;;;5.40;1.95;;;;;;;5.55;59.49;98543.50;4483796;31;20088;-84
2023/02/26 01:48:54;;;;;;;2.30;1.50;;;;;;;5.59;59.49;98540.81;4485042;31;20122;-84
2023/02/26 01:51:42;;;;;;;2.62;1.80;;;;;;;5.54;59.49;98546.97;4471153;32;20138;-84
2023/02/26 01:54:07;;;;;;;3.83;1.75;;;;;;;5.59;59.49;98559.72;4485049;31;20114;-84
2023/02/26 01:56:33;;;;;;;3.33;2.12;;;;;;;5.49;59.49;98558.34;4462889;32;20431;-84
2023/02/26 01:58:58;;;;;;;3.22;1.98;;;;;;;5.60;59.48;98584.66;4484280;31;20108;-83
2023/02/26 02:01:24;;;;;;;4.43;1.87;;;;;;;5.46;59.49;98590.25;4486343;31;20118;-83
2023/02/26 02:03:49;;;;;;;2.95;2.03;;;;;;;5.46;59.49;98598.00;4475718;31;20129;-84
2023/02/26 02:06:22;;;;;;;2.62;1.77;;;;;;;5.33;59.48;98613.87;4490099;31;20089;-84
2023/02/26 02:08:47;;;;;;;3.28;2.20;;;;;;;5.40;59.49;98605.03;4486253;31;20173;-85
2023/02/26 02:11:13;;;;;;;3.47;2.25;;;;;;;5.50;59.49;98593.56;4483407;32;20109;-84
2023/02/26 02:14:02;;;;;;;3.67;2.28;;;;;;;5.49;59.49;98581.56;4483511;32;20106;-84
2023/02/26 02:16:31;;;;;;;4.87;2.53;;;;;;;5.52;59.49;98564.25;4472680;31;20487;-85
2023/02/26 02:19:40;;;;;;;2.35;2.00;;;;;;;5.53;59.49;98581.41;4478261;32;20138;-85
2023/02/26 02:22:39;;;;;;;3.97;2.17;;;;;;;5.71;59.50;98580.03;4488610;31;20114;-85
2023/02/26 02:25:23;;;;;;;3.80;2.08;;;;;;;5.66;59.49;98592.19;4490307;31;20115;-84
2023/02/26 02:31:14;;;;;;;6.22;2.40;;;;;;;5.60;59.49;98594.97;4484416;32;20184;-84
2023/02/26 02:33:48;;;;;;;2.95;2.22;;;;;;;5.44;59.48;98594.59;4472495;32;20117;-84
2023/02/26 02:36:28;;;;;;;3.72;1.77;;;;;;;5.86;59.51;98607.06;4480425;31;20100;-84
2023/02/26 02:38:56;;;;;;;5.47;2.10;;;;;;;5.63;59.50;98625.84;4472073;31;20088;-84
2023/02/26 02:41:25;;;;;;;4.00;2.50;;;;;;;5.63;59.50;98623.28;4481915;31;20809;-84
2023/02/26 02:43:51;;;;;;;4.35;2.25;;;;;;;5.39;59.49;98624.00;4471735;32;20164;-84
2023/02/26 02:46:28;;;;;;;5.15;2.55;;;;;;;5.22;59.46;98619.34;4481839;31;20084;-84
2023/02/26 02:49:01;;;;;;;3.60;2.28;;;;;;;5.14;59.46;98616.13;4466093;31;20103;-84
2023/02/26 02:51:32;;;;;;;3.95;2.53;;;;;;;5.27;59.48;98622.63;4486704;31;20108;-84
2023/02/26 02:54:19;;;;;;;5.25;2.90;;;;;;;5.18;59.47;98639.19;4490973;31;20116;-84
2023/02/26 02:56:48;;;;;;;3.97;2.58;;;;;;;5.07;59.46;98637.81;4486923;31;20114;-83
2023/02/26 02:59:28;;;;;;;4.63;2.57;;;;;;;5.16;59.47;98640.97;4484644;31;20095;-83
2023/02/26 03:01:59;;;;;;;3.37;2.05;;;;;;;4.93;59.46;98631.28;4486990;31;20126;-83
2023/02/26 03:04:25;;;;;;;5.78;2.50;;;;;;;5.03;59.46;98638.78;4471386;32;20522;-83
2023/02/26 03:06:50;;;;;;;3.40;2.15;;;;;;;4.83;59.45;98663.38;4483991;32;20143;-83
2023/02/26 03:09:16;;;;;;;4.53;2.30;;;;;;;4.80;59.45;98657.47;4485265;31;20155;-84
2023/02/26 03:11:41;;;;;;;4.72;2.42;;;;;;;4.77;59.44;98648.06;4483844;32;20122;-83
2023/02/26 03:14:09;;;;;;;5.87;2.58;;;;;;;4.77;59.44;98639.50;4483883;32;20088;-83
2023/02/26 03:16:59;;;;;;;3.58;2.42;;;;;;;4.93;59.45;98627.88;4483981;32;20097;-83
2023/02/26 03:20:04;;;;;;;5.80;2.75;;;;;;;4.62;59.43;98620.97;4487650;31;20100;-83
2023/02/26 03:22:41;;;;;;;3.90;2.22;;;;;;;4.62;59.44;98640.72;4485154;31;20100;-83
2023/02/26 03:25:11;;;;;;;5.03;2.58;;;;;;;4.53;59.43;98634.09;4485299;31;20092;-83
2023/02/26 03:27:48;;;;;;;5.12;2.37;;;;;;;4.69;59.44;98646.56;4486601;31;20144;-83
2023/02/26 03:30:21;;;;;;;5.28;2.50;;;;;;;4.52;59.43;98663.31;4496477;31;20107;-84
2023/02/26 03:32:53;;;;;;;4.82;3.00;;;;;;;4.60;59.44;98663.97;4471414;32;20127;-83
2023/02/26 03:35:24;;;;;;;6.20;3.30;;;;;;;4.74;59.45;98657.63;4485171;31;20092;-84
2023/02/26 03:37:51;;;;;;;3.97;2.15;;;;;;;4.72;59.45;98670.53;4482540;31;20156;-84
2023/02/26 03:40:38;;;;;;;3.87;2.35;;;;;;;4.82;59.45;98666.00;4486549;31;20096;-84
2023/02/26 03:43:07;;;;;;;5.70;3.00;;;;;;;4.70;59.44;98658.56;4485392;31;20112;-85
2023/02/26 03:45:34;;;;;;;4.75;2.80;;;;;;;4.61;59.43;98672.53;4482460;31;20112;-84
2023/02/26 03:47:59;;;;;;;5.87;2.83;;;;;;;4.57;59.44;98676.09;4488338;31;20115;-84
2023/02/26 03:50:34;;;;;;;4.85;2.40;;;;;;;4.63;59.43;98683.66;4485876;31;20084;-85
2023/02/26 03:53:00;;;;;;;6.30;3.00;;;;;;;4.53;59.43;98679.62;4463355;31;20720;-83
2023/02/26 03:55:31;;;;;;;5.03;2.60;;;;;;;4.59;59.43;98688.03;4464236;31;20115;-83
2023/02/26 03:57:56;;;;;;;4.95;2.72;;;;;;;4.56;59.43;98695.00;4485767;32;20088;-84
2023/02/26 04:00:22;;;;;;;3.80;2.55;;;;;;;4.41;59.42;98682.50;4472590;31;20128;-84
2023/02/26 04:03:06;;;;;;;5.03;2.85;;;;;;;4.34;59.42;98661.19;4486842;31;20072;-83
2023/02/26 04:05:34;;;;;;;4.05;3.08;;;;;;;4.55;59.43;98642.63;4485383;32;20142;-84
2023/02/26 04:07:59;;;;;;;4.95;3.17;;;;;;;4.44;59.43;98648.91;4485514;32;20096;-83
2023/02/26 04:10:34;;;;;;;6.62;2.85;;;;;;;4.47;59.43;98651.41;4472496;32;20451;-82
2023/02/26 04:13:00;;;;;;;6.47;2.80;;;;;;;4.38;59.42;98652.50;4473043;32;20112;-84
2023/02/26 04:15:26;;;;;;;4.32;2.40;;;;;;;4.51;59.43;98658.22;4485465;32;20157;-84
2023/02/26 04:17:51;;;;;;;5.10;2.25;;;;;;;4.60;59.44;98656.22;4485300;32;20111;-85
2023/02/26 04:20:17;;;;;;;4.25;2.80;;;;;;;4.52;59.43;98672.78;4472337;32;20103;-84
2023/02/26 04:22:42;;;;;;;3.30;2.40;;;;;;;4.60;59.44;98689.75;4485245;32;20100;-84
2023/02/26 04:25:07;;;;;;;5.22;2.30;;;;;;;4.62;59.44;98692.28;4484965;32;20183;-84
2023/02/26 04:27:33;;;;;;;4.93;2.85;;;;;;;4.48;59.43;98717.53;4486532;31;20088;-84
2023/02/26 04:29:58;;;;;;;4.68;2.65;;;;;;;4.59;59.43;98729.28;4485073;31;20117;-84
2023/02/26 04:32:24;;;;;;;4.50;2.58;;;;;;;4.84;59.44;98723.53;4494009;31;20137;-83
2023/02/26 04:34:49;;;;;;;4.57;2.55;;;;;;;4.93;59.46;98713.81;4486527;31;20130;-84
2023/02/26 04:37:14;;;;;;;5.78;2.42;;;;;;;4.84;59.44;98713.22;4486341;31;20133;-84
2023/02/26 04:39:40;;;;;;;3.92;2.58;;;;;;;4.70;59.44;98723.84;4489450;31;20159;-84
2023/02/26 04:42:05;;;;;;;5.57;2.95;;;;;;;4.82;59.45;98728.72;4492782;31;20089;-84
2023/02/26 04:44:31;;;;;;;4.07;2.33;;;;;;;4.62;59.43;98747.25;4485190;32;20174;-84
2023/02/26 04:46:56;;;;;;;4.05;2.28;;;;;;;4.60;59.43;98759.31;4486588;31;20140;-85
2023/02/26 04:49:22;;;;;;;4.72;2.78;;;;;;;4.68;59.44;98742.81;4486615;31;20261;-84
2023/02/26 04:51:47;;;;;;;5.35;3.05;;;;;;;4.57;59.44;98741.38;4488110;31;20151;-84
2023/02/26 04:54:14;;;;;;;6.20;3.72;;;;;;;4.54;59.43;98741.44;4484949;31;20449;-84
2023/02/26 04:56:39;;;;;;;4.53;2.72;;;;;;;4.53;59.44;98729.44;4471557;32;20557;-84
2023/02/26 04:59:05;;;;;;;4.32;2.50;;;;;;;4.57;59.44;98740.50;4485473;31;20096;-84
2023/02/26 05:01:30;;;;;;;5.90;3.28;;;;;;;4.65;59.44;98740.31;4485308;32;20093;-84
2023/02/26 05:03:56;;;;;;;4.65;3.12;;;;;;;4.48;59.43;98740.72;4472186;32;20120;-84
2023/02/26 05:06:21;;;;;;;4.25;2.50;;;;;;;4.43;59.43;98729.69;4472147;32;20171;-84
2023/02/26 05:08:47;;;;;;;3.85;2.35;;;;;;;4.25;59.41;98723.22;4472135;31;20174;-84
2023/02/26 05:11:12;;;;;;;4.75;2.70;;;;;;;4.32;59.41;98720.47;4486069;31;20088;-84
2023/02/26 05:13:38;;;;;;;6.53;2.53;;;;;;;4.31;59.42;98725.66;4486190;31;20132;-84
2023/02/26 05:16:04;;;;;;;5.82;2.95;;;;;;;4.31;59.41;98721.37;4487504;31;20076;-84
2023/02/26 05:18:29;;;;;;;3.97;2.55;;;;;;;4.08;59.41;98728.78;4484803;31;20137;-84
2023/02/26 05:20:55;;;;;;;4.93;3.03;;;;;;;4.12;59.40;98719.25;4484885;32;20152;-83
2023/02/26 05:23:20;;;;;;;5.95;3.15;;;;;;;3.99;59.41;98726.38;4485338;31;20379;-83
2023/02/26 05:25:46;;;;;;;5.25;2.75;;;;;;;4.15;59.41;98735.47;4485165;32;20100;-84
2023/02/26 05:28:12;;;;;;;5.47;3.25;;;;;;;4.21;59.41;98753.34;4469806;31;20417;-84
2023/02/26 05:30:38;;;;;;;7.15;3.05;;;;;;;4.15;59.41;98760.38;4485044;32;20097;-85
2023/02/26 05:33:03;;;;;;;5.53;3.10;;;;;;;4.26;59.41;98773.87;4486163;31;20197;-84
2023/02/26 05:35:29;;;;;;;5.62;3.12;;;;;;;4.20;59.41;98780.00;4484615;32;20156;-84
2023/02/26 05:37:54;;;;;;;7.50;3.55;;;;;;;4.25;59.41;98770.44;4484749;31;20092;-83
2023/02/26 05:40:20;;;;;;;4.22;2.78;;;;;;;4.30;59.42;98768.63;4487122;31;20138;-85
2023/02/26 05:42:45;;;;;;;5.15;2.95;;;;;;;4.37;59.42;98773.63;4482081;31;20147;-84
2023/02/26 05:45:10;;;;;;;4.72;2.75;;;;;;;4.22;59.42;98779.94;4475768;32;20108;-85
2023/02/26 05:47:36;;;;;;;4.97;2.90;;;;;;;4.14;59.41;98790.44;4495111;31;20522;-85
2023/02/26 05:50:02;;;;;;;4.30;2.65;;;;;;;4.19;59.41;98800.62;4484789;32;20169;-85
2023/02/26 05:52:28;;;;;;;5.65;3.15;;;;;;;4.26;59.41;98807.38;4469364;31;20099;-85
2023/02/26 05:54:53;;;;;;;4.87;2.80;;;;;;;4.21;59.42;98811.75;4484695;32;20142;-84
2023/02/26 05:57:19;;;;;;;3.15;2.55;;;;;;;4.22;59.42;98809.12;4484543;31;20132;-85
2023/02/26 05:59:44;;;;;;;6.35;3.08;;;;;;;4.08;59.40;98805.19;4471884;32;20108;-85
2023/02/26 06:02:09;;;;;;;9.45;5.10;;;;;;;4.05;59.40;98805.25;4485135;31;20171;-85
2023/02/26 06:04:35;;;;;;;5.57;3.62;;;;;;;3.96;59.40;98812.25;4478083;31;20376;-85
2023/02/26 06:07:00;;;;;;;6.20;3.30;;;;;;;3.97;59.41;98803.66;4487844;31;20425;-84
2023/02/26 06:09:26;;;;;;;7.87;3.17;;;;;;;4.08;59.41;98811.16;4465431;31;20099;-85
2023/02/26 06:11:51;;;;;;;5.80;3.15;;;;;;;4.13;59.41;98809.34;4486369;31;20759;-84
2023/02/26 06:14:17;;;;;;;5.47;3.22;;;;;;;4.21;59.42;98819.47;4486489;31;20100;-86
2023/02/26 06:16:42;;;;;;;4.47;3.10;;;;;;;4.20;59.41;98826.34;4485793;31;20118;-84
2023/02/26 06:19:07;;;;;;;5.07;3.30;;;;;;;4.17;59.41;98815.28;4475090;32;20112;-85
2023/02/26 06:21:33;;;;;;;4.55;2.55;;;;;;;4.15;59.41;98833.34;4475664;31;20121;-86
2023/02/26 06:23:58;;;;;;;6.18;3.53;;;;;;;4.34;59.42;98838.94;4485826;31;20085;-89
2023/02/26 06:26:24;;;;;;;4.47;3.08;;;;;;;4.22;59.42;98842.63;4482063;31;20108;-88
2023/02/26 06:28:49;;;;;;;4.82;2.90;;;;;;;4.37;59.43;98844.03;4484880;32;20169;-87
2023/02/26 06:31:15;;;;;;;5.80;3.12;;;;;;;4.36;59.43;98838.91;4471621;31;20134;-87
2023/02/26 06:33:40;;;;;;;4.32;2.72;;;;;;;4.46;59.43;98841.25;4487224;31;20184;-87
2023/02/26 06:36:07;;;;;;;6.57;3.42;;;;;;;4.58;59.43;98835.00;4466587;31;20108;-86
2023/02/26 06:38:32;;;;;;;5.37;3.00;;;;;;;4.54;59.43;98830.78;4485872;31;20142;-86
2023/02/26 06:40:57;;;;;;;6.37;3.50;;;;;;;4.56;59.43;98835.03;4485977;31;20100;-86
2023/02/26 06:43:23;;;;;;;6.20;3.05;;;;;;;4.54;59.43;98841.94;4484457;32;20148;-85
2023/02/26 06:45:48;;;;;;;5.95;3.40;;;;;;;4.61;59.43;98868.41;4484203;31;20315;-85
2023/02/26 06:48:14;;;;;;;4.90;3.12;;;;;;;4.52;59.43;98869.47;4477520;31;20168;-86
2023/02/26 06:50:39;;;;;;;5.00;3.20;;;;;;;4.63;59.44;98871.81;4490706;31;20147;-86
2023/02/26 06:53:05;;;;;;;3.90;2.95;;;;;;;4.68;59.44;98871.69;4458306;32;20156;-85
2023/02/26 06:55:30;;;;;;;6.57;3.05;;;;;;;4.72;59.45;98868.16;4481951;31;20114;-87
2023/02/26 06:57:56;;;;;;;5.00;2.97;;;;;;;4.55;59.43;98863.41;4463925;31;20445;-87
2023/02/26 07:00:22;;;;;;;4.75;2.83;;;;;;;4.58;59.43;98873.66;4486227;31;20141;-86
2023/02/26 07:02:48;;;;;;;4.22;2.90;;;;;;;4.56;59.43;98871.09;4485655;31;20109;-86
2023/02/26 07:05:13;;;;;;;3.50;2.60;;;;;;;4.56;59.43;98863.38;4481707;31;20135;-86
2023/02/26 07:07:39;;;;;;;5.03;3.33;;;;;;;4.57;59.44;98867.66;4473976;31;20414;-86
2023/02/26 07:10:04;;;;;;;7.05;3.60;;;;;;;4.56;59.43;98865.94;4458173;31;20123;-86
2023/02/26 07:12:30;;;;;;;5.78;3.00;;;;;;;4.60;59.44;98874.47;4476603;31;20163;-84
2023/02/26 07:14:55;;;;;;;6.10;3.58;;;;;;;4.53;59.43;98866.03;4486721;31;20132;-86
2023/02/26 07:17:21;;;;;;;6.30;3.33;;;;;;;4.59;59.44;98859.88;4500326;31;20158;-86
2023/02/26 07:19:47;;;;;;;5.35;3.30;;;;;;;4.49;59.42;98846.31;4475803;31;20139;-85
2023/02/26 07:22:12;;;;;;;4.85;3.50;;;;;;;4.66;59.44;98850.28;4476414;31;20119;-86
2023/02/26 07:24:38;;;;;;;4.78;2.97;;;;;;;4.59;59.44;98865.03;4486642;31;20461;-86
2023/02/26 07:27:03;;;;;;;6.82;3.30;;;;;;;4.46;59.43;98858.44;4484266;31;20174;-86
2023/02/26 07:29:28;;;;;;;4.47;2.92;;;;;;;4.51;59.43;98867.78;4481557;31;20156;-87
2023/02/26 07:31:54;;;;;;;6.75;3.35;;;;;;;4.78;59.44;98858.59;4486448;31;20213;-85
2023/02/26 07:34:19;;;;;;;5.45;3.10;;;;;;;4.85;59.45;98836.09;4484553;32;20737;-85
2023/02/26 07:36:45;;;;;;;7.07;3.87;;;;;;;4.81;59.45;98843.03;4471041;32;20606;-86
2023/02/26 07:39:10;;;;;;;6.15;3.42;;;;;;;5.11;59.47;98869.84;4483806;31;20139;-87
2023/02/26 07:41:35;;;;;;;4.82;3.35;;;;;;;5.12;59.47;98887.00;4483927;32;20122;-86
2023/02/26 07:44:01;;;;;;;5.25;2.92;;;;;;;5.14;59.46;98868.91;4483765;32;20124;-86
2023/02/26 07:46:26;;;;;;;4.78;3.25;;;;;;;5.18;59.47;98868.78;4484813;31;20104;-86
2023/02/26 07:48:52;;;;;;;7.28;3.35;;;;;;;5.30;59.47;98872.81;4471076;32;21590;-87
2023/02/26 07:51:17;;;;;;;4.45;2.50;;;;;;;5.26;59.48;98867.78;4486012;31;20127;-87
2023/02/26 07:53:43;;;;;;;4.65;3.37;;;;;;;5.43;59.48;98875.94;4470255;32;20097;-87
2023/02/26 07:56:09;;;;;;;7.40;4.70;;;;;;;5.40;59.49;98876.00;4470637;32;20493;-87
2023/02/26 07:58:34;;;;;;;6.75;4.12;;;;;;;5.40;59.48;98869.09;4470454;32;20130;-88
2023/02/26 08:01:00;;;;;;;4.03;2.90;;;;;;;5.35;59.48;98876.12;4485188;31;20164;-88
2023/02/26 08:03:25;;;;;;;5.22;3.33;;;;;;;5.35;59.48;98872.69;4470321;32;20088;-87
2023/02/26 08:05:50;;;;;;;5.45;3.60;;;;;;;5.71;59.50;98870.94;4484590;31;20145;-87
2023/02/26 08:08:16;;;;;;;5.07;3.08;;;;;;;5.84;59.51;98865.37;4483131;32;20160;-87
2023/02/26 08:10:42;;;;;;;6.95;3.58;;;;;;;5.97;59.51;98870.25;4470035;32;20124;-87
2023/02/26 08:13:08;;;;;;;4.60;3.22;;;;;;;5.87;59.51;98867.03;4470422;32;20370;-87
2023/02/26 08:15:33;;;;;;;4.37;3.10;;;;;;;6.17;59.53;98859.38;4484629;31;20147;-89
2023/02/26 08:17:58;;;;;;;5.00;2.80;;;;;;;5.95;59.51;98862.53;4483189;32;20145;-88
2023/02/26 08:20:24;;;;;;;4.40;2.83;;;;;;;6.04;59.52;98864.03;4483250;32;20145;-89
2023/02/26 08:22:49;;;;;;;7.53;3.62;;;;;;;6.08;59.52;98878.53;4466598;31;20203;-88
2023/02/26 08:25:15;;;;;;;4.55;3.05;;;;;;;6.17;59.52;98875.72;4469756;32;20108;-88
2023/02/26 08:27:40;;;;;;;6.22;3.72;;;;;;;6.27;59.54;98882.31;4486518;31;20084;-89
2023/02/26 08:30:08;;;;;;;6.15;3.37;;;;;;;6.26;59.53;98878.03;4469620;32;20160;-88
2023/02/26 08:32:34;;;;;;;4.70;3.08;;;;;;;6.34;59.53;98870.03;4468605;31;20096;-88
2023/02/26 08:34:59;;;;;;;3.72;2.40;;;;;;;6.28;59.54;98868.50;4487639;31;20207;-88
2023/02/26 08:37:25;;;;;;;5.72;2.90;;;;;;;6.13;59.52;98874.94;4488277;31;20440;-88
2023/02/26 08:39:51;;;;;;;5.07;2.90;;;;;;;5.97;59.51;98885.75;4487781;31;20083;-89
2023/02/26 08:42:19;;;;;;;5.47;3.50;;;;;;;5.98;59.52;98885.72;4485524;31;20108;-88
2023/02/26 08:44:44;;;;;;;3.78;2.65;;;;;;;5.99;59.52;98886.56;4462388;31;20146;-88
2023/02/26 08:47:10;;;;;;;5.87;3.17;;;;;;;6.04;59.52;98884.69;4481705;31;20449;-88
2023/02/26 08:49:35;;;;;;;4.50;2.67;;;;;;;6.12;59.52;98890.47;4486578;31;20149;-88
2023/02/26 08:52:01;;;;;;;4.45;3.00;;;;;;;6.29;59.54;98901.19;4472807;32;20125;-89
2023/02/26 08:54:28;;;;;;;7.95;4.20;;;;;;;6.20;59.52;98898.03;4476267;31;20148;-88
2023/02/26 08:56:56;;;;;;;6.10;2.97;;;;;;;6.06;59.52;98908.75;4466888;32;20786;-89
2023/02/26 08:59:22;;;;;;;11.82;4.65;;;;;;;6.21;59.53;98913.50;4460622;32;20456;-89
2023/02/26 09:01:48;;;;;;;9.00;3.92;;;;;;;6.27;59.53;98915.06;4485383;31;20084;-87
2023/02/26 09:04:14;;;;;;;4.82;3.05;;;;;;;6.38;59.53;98916.44;4486236;31;20104;-89
2023/02/26 09:06:39;;;;;;;20.67;8.50;;;;;;;6.34;59.53;98911.41;4487938;31;20396;-88
2023/02/26 09:09:05;;;;;;;5.68;2.97;;;;;;;6.40;59.54;98912.09;4470525;32;20092;-88
2023/02/26 09:11:31;;;;;;;7.68;3.65;;;;;;;6.28;59.54;98911.59;4471936;32;20156;-87
2023/02/26 09:13:57;;;;;;;4.75;3.15;;;;;;;6.27;59.53;98912.47;4472002;32;20119;-88
2023/02/26 09:16:23;;;;;;;8.25;4.05;;;;;;;6.24;59.53;98921.16;4479148;31;20543;-87
2023/02/26 09:18:49;;;;;;;13.38;4.65;;;;;;;6.25;59.53;98922.84;4484864;31;20088;-87
2023/02/26 09:21:14;;;;;;;16.58;5.20;;;;;;;6.34;59.53;98924.31;4471875;32;20153;-87
2023/02/26 09:23:39;;;;;;;10.60;4.00;;;;;;;6.48;59.54;98919.63;4472228;32;20225;-89
2023/02/26 09:26:07;;;;;;;14.98;4.47;;;;;;;6.52;59.54;98928.97;4471985;32;20100;-86
2023/02/26 09:28:33;;;;;;;4.70;3.30;;;;;;;6.44;59.54;98936.13;4484855;32;20093;-88
2023/02/26 09:30:58;;;;;;;5.97;3.60;;;;;;;6.49;59.54;98926.47;4480865;31;20178;-88
2023/02/26 09:33:24;;;;;;;4.45;3.22;;;;;;;6.68;59.56;98924.22;4486895;31;20179;-89
2023/02/26 09:35:50;;;;;;;3.55;2.33;;;;;;;6.95;59.57;98932.88;4465671;32;20144;-89
2023/02/26 09:38:15;;;;;;;4.87;2.67;;;;;;;7.04;59.58;98933.44;4469307;32;20498;-89
2023/02/26 09:40:50;;;;;;;4.68;3.37;;;;;;;6.87;59.56;98925.38;4490900;31;20136;-89
2023/02/26 09:43:31;;;;;;;3.20;2.35;;;;;;;6.94;59.57;98942.41;4487220;31;20107;-89
2023/02/26 09:45:59;;;;;;;4.43;2.72;;;;;;;7.26;59.59;98943.97;4480917;31;112333;-89
2023/02/26 09:48:25;;;;;;;4.35;2.50;;;;;;;7.52;59.59;98937.12;4477528;31;20447;-89
2023/02/26 09:50:55;;;;;;;6.72;2.92;;;;;;;7.60;59.60;98932.56;4485945;31;20116;-89
2023/02/26 09:53:30;;;;;;;4.70;2.58;;;;;;;7.74;59.61;98925.16;4472036;32;20120;-88
2023/02/26 09:56:00;;;;;;;4.25;2.70;;;;;;;7.74;59.61;98921.72;4485618;31;20159;-89
2023/02/26 09:58:32;;;;;;;3.40;2.42;;;;;;;7.90;59.62;98922.91;4471631;32;20093;-88
2023/02/26 10:01:15;;;;;;;6.47;2.72;;;;;;;8.03;59.63;98929.34;4471167;32;20092;-90
2023/02/26 10:04:25;;;;;;;5.03;3.10;;;;;;;8.23;59.65;98926.06;4485826;31;20157;-89
2023/02/26 10:07:03;;;;;;;3.45;1.83;;;;;;;8.48;59.66;98936.41;4450943;31;20108;-90
2023/02/26 10:09:56;;;;;;;3.80;2.20;;;;;;;8.53;59.66;98935.38;4479095;31;20115;-89
2023/02/26 10:12:24;;;;;;;2.87;1.55;;;;;;;8.71;59.67;98944.19;4486209;31;20100;-91
2023/02/26 10:15:04;;;;;;;3.08;1.98;;;;;;;8.77;59.67;98962.16;4470177;31;20464;-91
2023/02/26 10:18:04;;;;;;;4.45;2.25;;;;;;;8.82;59.68;98977.53;4478385;32;20131;-91
2023/02/26 10:20:40;;;;;;;2.33;1.73;;;;;;;8.57;59.66;98983.62;4485251;32;20159;-92
2023/02/26 10:23:17;;;;;;;4.43;2.62;;;;;;;8.48;59.65;98980.50;4483612;31;20079;-91
2023/02/26 10:25:57;;;;;;;2.12;1.50;;;;;;;8.57;59.65;98987.97;4485786;32;20107;-91
2023/02/26 10:28:52;;;;;;;2.17;1.73;;;;;;;8.55;59.65;98980.25;4486108;31;20104;-91
2023/02/26 10:31:23;;;;;;;2.20;1.75;;;;;;;8.58;59.65;98995.69;4489793;31;20076;-91
2023/02/26 10:34:23;;;;;;;2.10;1.40;;;;;;;8.62;59.66;98988.66;4481218;32;20114;-90
2023/02/26 10:37:14;;;;;;;3.22;1.75;;;;;;;8.82;59.68;99000.91;4484645;32;20131;-90
2023/02/26 10:40:05;;;;;;;2.95;1.42;;;;;;;8.78;59.67;98997.56;4487777;31;20116;-90
2023/02/26 10:42:37;;;;;;;2.65;1.58;;;;;;;8.53;59.66;98997.63;4487826;31;20137;-92
2023/02/26 10:45:24;;;;;;;2.80;1.48;;;;;;;8.54;59.66;99008.84;4462695;32;20092;-90
2023/02/26 10:47:58;;;;;;;3.72;1.73;;;;;;;8.63;59.66;99005.06;4484768;31;20155;-90
2023/02/26 10:50:25;;;;;;;6.25;2.80;;;;;;;8.76;59.67;99007.16;4478208;32;20177;-90
2023/02/26 10:52:50;;;;;;;2.97;1.83;;;;;;;8.77;59.67;99001.06;4458990;32;20109;-90
2023/02/26 10:55:27;;;;;;;8.00;2.67;;;;;;;8.88;59.67;99009.28;4487457;31;20135;-90
2023/02/26 10:58:05;;;;;;;5.57;1.87;;;;;;;8.83;59.67;99012.97;4481893;32;20120;-89
2023/02/26 11:00:38;;;;;;;2.30;1.60;;;;;;;8.90;59.68;99015.28;4487090;31;20119;-91
2023/02/26 11:03:04;;;;;;;2.62;1.52;;;;;;;8.89;59.68;99000.59;4466881;31;20841;-90
2023/02/26 11:05:30;;;;;;;3.10;1.85;;;;;;;9.08;59.69;99016.34;4489021;31;20084;-90
2023/02/26 11:08:07;;;;;;;3.15;2.15;;;;;;;9.06;59.68;99009.53;4462772;32;20108;-91
2023/02/26 11:10:51;;;;;;;3.70;2.00;;;;;;;9.11;59.68;99008.44;4483505;31;20134;-89
2023/02/26 11:13:20;;;;;;;3.45;2.00;;;;;;;9.20;59.70;99002.03;4484447;32;20449;-90
2023/02/26 11:15:48;;;;;;;3.70;1.80;;;;;;;9.53;59.71;99005.09;4471747;32;20081;-89
2023/02/26 11:18:16;;;;;;;3.15;1.67;;;;;;;9.82;59.72;99003.91;4482144;31;20104;-91
2023/02/26 11:20:42;;;;;;;4.50;1.65;;;;;;;9.70;59.72;99001.81;4472954;32;20184;-89
2023/02/26 11:23:21;;;;;;;2.45;1.42;;;;;;;9.60;59.72;99018.69;4482883;31;20088;-88
2023/02/26 11:25:53;;;;;;;3.05;1.50;;;;;;;9.65;59.72;99012.38;4487491;31;20096;-88
2023/02/26 11:28:31;;;;;;;2.12;1.37;;;;;;;9.87;59.73;99017.56;4473979;31;20115;-89
2023/02/26 11:30:59;;;;;;;3.10;1.70;;;;;;;9.97;59.74;99016.31;4464911;32;20175;-90
2023/02/26 11:33:55;;;;;;;2.00;1.42;;;;;;;10.03;59.74;99017.78;4472842;32;20111;-90
2023/02/26 11:36:22;;;;;;;2.65;1.40;;;;;;;9.87;59.73;99024.53;4487172;31;20100;-90
2023/02/26 11:38:54;;;;;;;3.55;1.27;;;;;;;9.91;59.73;99028.69;4479856;31;20095;-90
2023/02/26 11:41:19;;;;;;;4.07;1.75;;;;;;;9.87;59.73;99033.16;4474413;31;20100;-89
2023/02/26 11:43:48;;;;;;;1.50;1.10;;;;;;;9.64;59.72;99026.28;4466243;32;20110;-92
2023/02/26 11:46:14;;;;;;;1.98;1.50;;;;;;;9.55;59.71;99037.06;4471821;31;20104;-90
2023/02/26 11:48:46;;;;;;;4.75;1.80;;;;;;;9.62;59.72;99030.69;4473864;31;20502;-91
2023/02/26 11:51:15;;;;;;;3.35;1.67;;;;;;;9.64;59.72;99036.69;4472455;31;20479;-89
2023/02/26 11:53:51;;;;;;;5.87;2.40;;;;;;;9.65;59.72;99027.13;4489575;31;20100;-89
2023/02/26 11:56:26;;;;;;;3.10;1.85;;;;;;;9.77;59.72;99030.09;4459770;31;20221;-91